sensor_id;sensor_type;location;lat;lon;timestamp;P1;durP1;ratioP1;P2;durP2;ratioP2
12816;SDS011;6473;51.552;6.716;2023-04-06T00:00:33;6.20;;;5.60;;
12816;SDS011;6473;51.552;6.716;2023-04-06T00:03:01;8.10;;;6.03;;
12816;SDS011;6473;51.552;6.716;2023-04-06T00:05:28;6.97;;;5.43;;
12816;SDS011;6473;51.552;6.716;2023-04-06T00:07:56;7.65;;;5.40;;
12816;SDS011;6473;51.552;6.716;2023-04-06T00:10:23;8.30;;;5.80;;
12816;SDS011;6473;51.552;6.716;2023-04-06T00:12:51;8.70;;;5.82;;
12816;SDS011;6473;51.552;6.716;2023-04-06T00:15:18;8.05;;;6.05;;
12816;SDS011;6473;51.552;6.716;2023-04-06T00:17:45;8.40;;;6.07;;
12816;SDS011;6473;51.552;6.716;2023-04-06T00:20:13;7.18;;;5.57;;
12816;SDS011;6473;51.552;6.716;2023-04-06T00:22:40;6.90;;;5.28;;
12816;SDS011;6473;51.552;6.716;2023-04-06T00:25:08;6.97;;;5.60;;
12816;SDS011;6473;51.552;6.716;2023-04-06T00:27:36;7.70;;;5.70;;
12816;SDS011;6473;51.552;6.716;2023-04-06T00:30:03;7.30;;;5.25;;
12816;SDS011;6473;51.552;6.716;2023-04-06T00:32:31;6.00;;;5.40;;
12816;SDS011;6473;51.552;6.716;2023-04-06T00:34:58;7.20;;;5.82;;
12816;SDS011;6473;51.552;6.716;2023-04-06T00:37:26;6.55;;;5.68;;
12816;SDS011;6473;51.552;6.716;2023-04-06T00:39:53;7.90;;;6.25;;
12816;SDS011;6473;51.552;6.716;2023-04-06T00:42:20;6.28;;;5.47;;
12816;SDS011;6473;51.552;6.716;2023-04-06T00:44:51;11.23;;;5.85;;
12816;SDS011;6473;51.552;6.716;2023-04-06T00:47:18;7.45;;;5.90;;
12816;SDS011;6473;51.552;6.716;2023-04-06T00:49:45;8.40;;;6.13;;
12816;SDS011;6473;51.552;6.716;2023-04-06T00:52:12;8.13;;;6.00;;
12816;SDS011;6473;51.552;6.716;2023-04-06T00:54:42;7.53;;;5.88;;
12816;SDS011;6473;51.552;6.716;2023-04-06T00:57:10;8.60;;;6.03;;
12816;SDS011;6473;51.552;6.716;2023-04-06T00:59:38;7.57;;;6.40;;
12816;SDS011;6473;51.552;6.716;2023-04-06T01:02:07;9.30;;;6.35;;
12816;SDS011;6473;51.552;6.716;2023-04-06T01:04:41;9.40;;;6.32;;
12816;SDS011;6473;51.552;6.716;2023-04-06T01:07:15;8.65;;;6.60;;
12816;SDS011;6473;51.552;6.716;2023-04-06T01:09:54;7.80;;;6.40;;
12816;SDS011;6473;51.552;6.716;2023-04-06T01:12:24;10.20;;;6.10;;
12816;SDS011;6473;51.552;6.716;2023-04-06T01:14:51;8.93;;;6.45;;
12816;SDS011;6473;51.552;6.716;2023-04-06T01:17:19;9.68;;;6.55;;
12816;SDS011;6473;51.552;6.716;2023-04-06T01:19:46;10.95;;;6.90;;
12816;SDS011;6473;51.552;6.716;2023-04-06T01:22:23;8.00;;;6.57;;
12816;SDS011;6473;51.552;6.716;2023-04-06T01:24:57;8.27;;;6.50;;
12816;SDS011;6473;51.552;6.716;2023-04-06T01:27:31;8.93;;;6.57;;
12816;SDS011;6473;51.552;6.716;2023-04-06T01:30:19;7.53;;;6.07;;
12816;SDS011;6473;51.552;6.716;2023-04-06T01:32:50;9.52;;;6.28;;
12816;SDS011;6473;51.552;6.716;2023-04-06T01:35:28;8.23;;;6.80;;
12816;SDS011;6473;51.552;6.716;2023-04-06T01:38:06;9.27;;;6.30;;
12816;SDS011;6473;51.552;6.716;2023-04-06T01:40:35;9.68;;;6.97;;
12816;SDS011;6473;51.552;6.716;2023-04-06T01:43:02;8.40;;;6.85;;
12816;SDS011;6473;51.552;6.716;2023-04-06T01:45:39;8.25;;;6.35;;
12816;SDS011;6473;51.552;6.716;2023-04-06T01:48:13;9.25;;;6.25;;
12816;SDS011;6473;51.552;6.716;2023-04-06T01:50:41;8.35;;;6.28;;
12816;SDS011;6473;51.552;6.716;2023-04-06T01:53:11;7.20;;;6.13;;
12816;SDS011;6473;51.552;6.716;2023-04-06T01:55:40;8.18;;;6.07;;
12816;SDS011;6473;51.552;6.716;2023-04-06T01:58:22;10.07;;;6.38;;
12816;SDS011;6473;51.552;6.716;2023-04-06T02:00:48;7.28;;;5.90;;
12816;SDS011;6473;51.552;6.716;2023-04-06T02:03:16;9.57;;;6.05;;
12816;SDS011;6473;51.552;6.716;2023-04-06T02:05:44;9.02;;;6.13;;
12816;SDS011;6473;51.552;6.716;2023-04-06T02:08:27;8.40;;;5.68;;
12816;SDS011;6473;51.552;6.716;2023-04-06T02:10:54;10.75;;;5.80;;
12816;SDS011;6473;51.552;6.716;2023-04-06T02:13:28;9.02;;;6.40;;
12816;SDS011;6473;51.552;6.716;2023-04-06T02:15:56;9.40;;;6.07;;
12816;SDS011;6473;51.552;6.716;2023-04-06T02:18:23;8.15;;;6.10;;
12816;SDS011;6473;51.552;6.716;2023-04-06T02:20:50;7.53;;;5.85;;
12816;SDS011;6473;51.552;6.716;2023-04-06T02:23:17;8.32;;;6.38;;
12816;SDS011;6473;51.552;6.716;2023-04-06T02:25:46;10.65;;;6.30;;
12816;SDS011;6473;51.552;6.716;2023-04-06T02:28:12;10.18;;;6.05;;
12816;SDS011;6473;51.552;6.716;2023-04-06T02:30:39;10.40;;;6.78;;
12816;SDS011;6473;51.552;6.716;2023-04-06T02:33:06;8.88;;;6.00;;
12816;SDS011;6473;51.552;6.716;2023-04-06T02:35:45;9.27;;;6.38;;
12816;SDS011;6473;51.552;6.716;2023-04-06T02:38:11;8.60;;;5.85;;
12816;SDS011;6473;51.552;6.716;2023-04-06T02:40:38;8.03;;;5.80;;
12816;SDS011;6473;51.552;6.716;2023-04-06T02:43:18;8.77;;;6.03;;
12816;SDS011;6473;51.552;6.716;2023-04-06T02:45:46;10.20;;;6.15;;
12816;SDS011;6473;51.552;6.716;2023-04-06T02:48:13;8.77;;;6.25;;
12816;SDS011;6473;51.552;6.716;2023-04-06T02:50:40;9.50;;;6.60;;
12816;SDS011;6473;51.552;6.716;2023-04-06T02:53:07;9.70;;;6.85;;
12816;SDS011;6473;51.552;6.716;2023-04-06T02:55:36;9.17;;;6.97;;
12816;SDS011;6473;51.552;6.716;2023-04-06T02:58:03;11.27;;;7.53;;
12816;SDS011;6473;51.552;6.716;2023-04-06T03:00:41;9.73;;;7.23;;
12816;SDS011;6473;51.552;6.716;2023-04-06T03:03:07;9.13;;;6.85;;
12816;SDS011;6473;51.552;6.716;2023-04-06T03:05:35;9.85;;;7.25;;
12816;SDS011;6473;51.552;6.716;2023-04-06T03:08:03;11.07;;;7.20;;
12816;SDS011;6473;51.552;6.716;2023-04-06T03:10:39;7.43;;;6.40;;
12816;SDS011;6473;51.552;6.716;2023-04-06T03:13:06;8.77;;;6.72;;
12816;SDS011;6473;51.552;6.716;2023-04-06T03:15:50;10.43;;;6.53;;
12816;SDS011;6473;51.552;6.716;2023-04-06T03:18:20;9.05;;;6.20;;
12816;SDS011;6473;51.552;6.716;2023-04-06T03:20:48;8.87;;;6.50;;
12816;SDS011;6473;51.552;6.716;2023-04-06T03:23:18;8.85;;;6.60;;
12816;SDS011;6473;51.552;6.716;2023-04-06T03:25:46;9.32;;;6.72;;
12816;SDS011;6473;51.552;6.716;2023-04-06T03:28:17;7.35;;;6.05;;
12816;SDS011;6473;51.552;6.716;2023-04-06T03:30:53;7.97;;;6.47;;
12816;SDS011;6473;51.552;6.716;2023-04-06T03:33:36;12.10;;;7.47;;
12816;SDS011;6473;51.552;6.716;2023-04-06T03:36:03;14.95;;;7.95;;
12816;SDS011;6473;51.552;6.716;2023-04-06T03:38:35;13.38;;;7.72;;
12816;SDS011;6473;51.552;6.716;2023-04-06T03:41:08;11.02;;;7.18;;
12816;SDS011;6473;51.552;6.716;2023-04-06T03:43:37;11.40;;;8.32;;
12816;SDS011;6473;51.552;6.716;2023-04-06T03:46:05;12.40;;;8.32;;
12816;SDS011;6473;51.552;6.716;2023-04-06T03:48:32;13.85;;;8.50;;
12816;SDS011;6473;51.552;6.716;2023-04-06T03:51:03;13.93;;;9.00;;
12816;SDS011;6473;51.552;6.716;2023-04-06T03:53:30;15.23;;;8.93;;
12816;SDS011;6473;51.552;6.716;2023-04-06T03:55:58;14.52;;;8.50;;
12816;SDS011;6473;51.552;6.716;2023-04-06T03:58:27;10.20;;;7.47;;
12816;SDS011;6473;51.552;6.716;2023-04-06T04:00:53;10.43;;;7.57;;
12816;SDS011;6473;51.552;6.716;2023-04-06T04:03:22;11.65;;;8.50;;
12816;SDS011;6473;51.552;6.716;2023-04-06T04:05:52;11.98;;;8.73;;
12816;SDS011;6473;51.552;6.716;2023-04-06T04:08:19;12.13;;;7.43;;
12816;SDS011;6473;51.552;6.716;2023-04-06T04:10:47;12.35;;;9.05;;
12816;SDS011;6473;51.552;6.716;2023-04-06T04:13:14;13.85;;;9.27;;
12816;SDS011;6473;51.552;6.716;2023-04-06T04:15:46;13.18;;;8.90;;
12816;SDS011;6473;51.552;6.716;2023-04-06T04:18:14;14.32;;;8.45;;
12816;SDS011;6473;51.552;6.716;2023-04-06T04:20:42;11.75;;;8.75;;
12816;SDS011;6473;51.552;6.716;2023-04-06T04:23:11;14.85;;;9.60;;
12816;SDS011;6473;51.552;6.716;2023-04-06T04:25:38;13.88;;;8.93;;
12816;SDS011;6473;51.552;6.716;2023-04-06T04:28:05;11.70;;;8.55;;
12816;SDS011;6473;51.552;6.716;2023-04-06T04:30:32;14.05;;;9.20;;
12816;SDS011;6473;51.552;6.716;2023-04-06T04:32:59;11.88;;;8.77;;
12816;SDS011;6473;51.552;6.716;2023-04-06T04:35:27;11.77;;;9.38;;
12816;SDS011;6473;51.552;6.716;2023-04-06T04:37:56;16.50;;;8.65;;
12816;SDS011;6473;51.552;6.716;2023-04-06T04:40:23;14.00;;;8.68;;
12816;SDS011;6473;51.552;6.716;2023-04-06T04:43:01;11.60;;;8.30;;
12816;SDS011;6473;51.552;6.716;2023-04-06T04:45:31;14.40;;;8.75;;
12816;SDS011;6473;51.552;6.716;2023-04-06T04:48:05;10.50;;;8.02;;
12816;SDS011;6473;51.552;6.716;2023-04-06T04:50:45;10.70;;;8.00;;
12816;SDS011;6473;51.552;6.716;2023-04-06T04:53:15;11.25;;;8.45;;
12816;SDS011;6473;51.552;6.716;2023-04-06T04:55:43;12.73;;;8.05;;
12816;SDS011;6473;51.552;6.716;2023-04-06T04:58:12;11.52;;;8.35;;
12816;SDS011;6473;51.552;6.716;2023-04-06T05:00:54;11.23;;;7.88;;
12816;SDS011;6473;51.552;6.716;2023-04-06T05:03:23;11.25;;;7.38;;
12816;SDS011;6473;51.552;6.716;2023-04-06T05:06:01;10.93;;;7.32;;
12816;SDS011;6473;51.552;6.716;2023-04-06T05:08:33;10.20;;;7.95;;
12816;SDS011;6473;51.552;6.716;2023-04-06T05:11:01;11.48;;;8.13;;
12816;SDS011;6473;51.552;6.716;2023-04-06T05:13:32;10.52;;;7.05;;
12816;SDS011;6473;51.552;6.716;2023-04-06T05:16:05;10.25;;;7.28;;
12816;SDS011;6473;51.552;6.716;2023-04-06T05:18:33;12.18;;;7.75;;
12816;SDS011;6473;51.552;6.716;2023-04-06T05:21:01;11.35;;;7.10;;
12816;SDS011;6473;51.552;6.716;2023-04-06T05:23:38;12.00;;;7.70;;
12816;SDS011;6473;51.552;6.716;2023-04-06T05:26:05;10.73;;;7.75;;
12816;SDS011;6473;51.552;6.716;2023-04-06T05:28:32;11.75;;;7.30;;
12816;SDS011;6473;51.552;6.716;2023-04-06T05:31:01;11.30;;;7.75;;
12816;SDS011;6473;51.552;6.716;2023-04-06T05:33:34;9.82;;;7.80;;
12816;SDS011;6473;51.552;6.716;2023-04-06T05:36:06;12.60;;;8.10;;
12816;SDS011;6473;51.552;6.716;2023-04-06T05:38:39;12.15;;;7.65;;
12816;SDS011;6473;51.552;6.716;2023-04-06T05:41:16;11.52;;;6.97;;
12816;SDS011;6473;51.552;6.716;2023-04-06T05:43:44;10.75;;;7.07;;
12816;SDS011;6473;51.552;6.716;2023-04-06T05:46:11;11.05;;;7.07;;
12816;SDS011;6473;51.552;6.716;2023-04-06T05:48:39;8.57;;;6.38;;
12816;SDS011;6473;51.552;6.716;2023-04-06T05:51:06;10.73;;;7.28;;
12816;SDS011;6473;51.552;6.716;2023-04-06T05:53:53;10.25;;;7.07;;
12816;SDS011;6473;51.552;6.716;2023-04-06T05:56:20;12.15;;;7.30;;
12816;SDS011;6473;51.552;6.716;2023-04-06T05:58:48;12.90;;;7.22;;
12816;SDS011;6473;51.552;6.716;2023-04-06T06:01:22;9.55;;;6.63;;
12816;SDS011;6473;51.552;6.716;2023-04-06T06:03:49;9.32;;;6.63;;
12816;SDS011;6473;51.552;6.716;2023-04-06T06:06:17;12.13;;;7.72;;
12816;SDS011;6473;51.552;6.716;2023-04-06T06:08:57;12.18;;;7.80;;
12816;SDS011;6473;51.552;6.716;2023-04-06T06:11:42;9.65;;;6.90;;
12816;SDS011;6473;51.552;6.716;2023-04-06T06:14:13;8.18;;;6.10;;
12816;SDS011;6473;51.552;6.716;2023-04-06T06:16:40;9.32;;;6.60;;
12816;SDS011;6473;51.552;6.716;2023-04-06T06:19:10;10.90;;;7.05;;
12816;SDS011;6473;51.552;6.716;2023-04-06T06:21:38;9.30;;;6.68;;
12816;SDS011;6473;51.552;6.716;2023-04-06T06:24:07;12.43;;;6.97;;
12816;SDS011;6473;51.552;6.716;2023-04-06T06:26:34;10.07;;;6.47;;
12816;SDS011;6473;51.552;6.716;2023-04-06T06:29:03;8.30;;;6.43;;
12816;SDS011;6473;51.552;6.716;2023-04-06T06:31:32;9.23;;;6.80;;
12816;SDS011;6473;51.552;6.716;2023-04-06T06:34:00;12.48;;;7.00;;
12816;SDS011;6473;51.552;6.716;2023-04-06T06:36:29;8.43;;;6.22;;
12816;SDS011;6473;51.552;6.716;2023-04-06T06:38:57;7.80;;;6.43;;
12816;SDS011;6473;51.552;6.716;2023-04-06T06:41:27;7.80;;;6.32;;
12816;SDS011;6473;51.552;6.716;2023-04-06T06:43:54;15.85;;;6.75;;
12816;SDS011;6473;51.552;6.716;2023-04-06T06:46:20;11.23;;;6.60;;
12816;SDS011;6473;51.552;6.716;2023-04-06T06:48:49;11.50;;;6.45;;
12816;SDS011;6473;51.552;6.716;2023-04-06T06:51:16;14.63;;;7.75;;
12816;SDS011;6473;51.552;6.716;2023-04-06T06:53:43;11.05;;;6.97;;
12816;SDS011;6473;51.552;6.716;2023-04-06T06:56:09;10.15;;;7.80;;
12816;SDS011;6473;51.552;6.716;2023-04-06T06:58:39;13.57;;;7.53;;
12816;SDS011;6473;51.552;6.716;2023-04-06T07:01:06;10.38;;;7.65;;
12816;SDS011;6473;51.552;6.716;2023-04-06T07:03:34;12.98;;;8.10;;
12816;SDS011;6473;51.552;6.716;2023-04-06T07:06:00;11.30;;;7.60;;
12816;SDS011;6473;51.552;6.716;2023-04-06T07:08:27;12.13;;;7.90;;
12816;SDS011;6473;51.552;6.716;2023-04-06T07:10:54;14.60;;;7.85;;
12816;SDS011;6473;51.552;6.716;2023-04-06T07:13:22;10.68;;;7.05;;
12816;SDS011;6473;51.552;6.716;2023-04-06T07:15:53;11.43;;;8.43;;
12816;SDS011;6473;51.552;6.716;2023-04-06T07:18:20;11.93;;;7.45;;
12816;SDS011;6473;51.552;6.716;2023-04-06T07:20:48;11.85;;;8.05;;
12816;SDS011;6473;51.552;6.716;2023-04-06T07:23:16;11.38;;;7.82;;
12816;SDS011;6473;51.552;6.716;2023-04-06T07:25:43;10.20;;;7.75;;
12816;SDS011;6473;51.552;6.716;2023-04-06T07:28:10;12.35;;;7.95;;
12816;SDS011;6473;51.552;6.716;2023-04-06T07:30:38;13.05;;;8.38;;
12816;SDS011;6473;51.552;6.716;2023-04-06T07:33:09;11.85;;;8.07;;
12816;SDS011;6473;51.552;6.716;2023-04-06T07:35:36;11.25;;;7.50;;
12816;SDS011;6473;51.552;6.716;2023-04-06T07:38:05;11.30;;;8.25;;
12816;SDS011;6473;51.552;6.716;2023-04-06T07:40:33;11.05;;;7.47;;
12816;SDS011;6473;51.552;6.716;2023-04-06T07:43:00;10.05;;;7.75;;
12816;SDS011;6473;51.552;6.716;2023-04-06T07:45:28;9.98;;;7.40;;
12816;SDS011;6473;51.552;6.716;2023-04-06T07:47:55;16.08;;;8.57;;
12816;SDS011;6473;51.552;6.716;2023-04-06T07:50:25;13.85;;;7.55;;
12816;SDS011;6473;51.552;6.716;2023-04-06T07:52:54;12.15;;;8.05;;
12816;SDS011;6473;51.552;6.716;2023-04-06T07:55:21;15.43;;;8.57;;
12816;SDS011;6473;51.552;6.716;2023-04-06T07:57:48;11.75;;;8.25;;
12816;SDS011;6473;51.552;6.716;2023-04-06T08:00:15;12.65;;;8.55;;
12816;SDS011;6473;51.552;6.716;2023-04-06T08:02:43;12.30;;;8.48;;
12816;SDS011;6473;51.552;6.716;2023-04-06T08:05:10;15.15;;;8.75;;
12816;SDS011;6473;51.552;6.716;2023-04-06T08:07:38;14.80;;;8.35;;
12816;SDS011;6473;51.552;6.716;2023-04-06T08:10:05;11.52;;;8.38;;
12816;SDS011;6473;51.552;6.716;2023-04-06T08:12:32;14.63;;;8.93;;
12816;SDS011;6473;51.552;6.716;2023-04-06T08:14:59;16.02;;;9.20;;
12816;SDS011;6473;51.552;6.716;2023-04-06T08:17:27;12.82;;;9.45;;
12816;SDS011;6473;51.552;6.716;2023-04-06T08:19:55;15.50;;;10.02;;
12816;SDS011;6473;51.552;6.716;2023-04-06T08:22:22;13.40;;;9.45;;
12816;SDS011;6473;51.552;6.716;2023-04-06T08:24:50;14.32;;;9.20;;
12816;SDS011;6473;51.552;6.716;2023-04-06T08:27:17;13.38;;;8.98;;
12816;SDS011;6473;51.552;6.716;2023-04-06T08:29:44;15.30;;;8.90;;
12816;SDS011;6473;51.552;6.716;2023-04-06T08:32:11;14.32;;;9.52;;
12816;SDS011;6473;51.552;6.716;2023-04-06T08:34:38;12.60;;;9.10;;
12816;SDS011;6473;51.552;6.716;2023-04-06T08:37:05;12.32;;;8.95;;
12816;SDS011;6473;51.552;6.716;2023-04-06T08:39:32;14.00;;;8.93;;
12816;SDS011;6473;51.552;6.716;2023-04-06T08:42:01;14.63;;;9.48;;
12816;SDS011;6473;51.552;6.716;2023-04-06T08:44:28;12.48;;;9.13;;
12816;SDS011;6473;51.552;6.716;2023-04-06T08:46:56;12.88;;;8.98;;
12816;SDS011;6473;51.552;6.716;2023-04-06T08:49:25;13.77;;;8.82;;
12816;SDS011;6473;51.552;6.716;2023-04-06T08:51:52;11.70;;;8.15;;
12816;SDS011;6473;51.552;6.716;2023-04-06T08:54:20;13.90;;;8.60;;
12816;SDS011;6473;51.552;6.716;2023-04-06T08:56:47;10.32;;;8.48;;
12816;SDS011;6473;51.552;6.716;2023-04-06T08:59:16;17.13;;;9.82;;
12816;SDS011;6473;51.552;6.716;2023-04-06T09:01:43;17.02;;;9.43;;
12816;SDS011;6473;51.552;6.716;2023-04-06T09:04:11;15.25;;;9.93;;
12816;SDS011;6473;51.552;6.716;2023-04-06T09:06:39;14.80;;;9.90;;
12816;SDS011;6473;51.552;6.716;2023-04-06T09:09:06;14.60;;;9.98;;
12816;SDS011;6473;51.552;6.716;2023-04-06T09:11:46;12.63;;;10.20;;
12816;SDS011;6473;51.552;6.716;2023-04-06T09:14:16;16.45;;;10.63;;
12816;SDS011;6473;51.552;6.716;2023-04-06T09:16:43;17.48;;;10.85;;
12816;SDS011;6473;51.552;6.716;2023-04-06T09:19:11;12.60;;;10.23;;
12816;SDS011;6473;51.552;6.716;2023-04-06T09:21:39;16.75;;;11.20;;
12816;SDS011;6473;51.552;6.716;2023-04-06T09:24:06;19.27;;;12.23;;
12816;SDS011;6473;51.552;6.716;2023-04-06T09:26:44;17.80;;;11.23;;
12816;SDS011;6473;51.552;6.716;2023-04-06T09:29:23;18.40;;;12.00;;
12816;SDS011;6473;51.552;6.716;2023-04-06T09:31:51;18.77;;;10.85;;
12816;SDS011;6473;51.552;6.716;2023-04-06T09:34:21;15.43;;;10.35;;
12816;SDS011;6473;51.552;6.716;2023-04-06T09:36:49;15.25;;;10.65;;
12816;SDS011;6473;51.552;6.716;2023-04-06T09:39:19;16.50;;;10.73;;
12816;SDS011;6473;51.552;6.716;2023-04-06T09:41:49;21.73;;;11.55;;
12816;SDS011;6473;51.552;6.716;2023-04-06T09:44:17;12.88;;;9.60;;
12816;SDS011;6473;51.552;6.716;2023-04-06T09:46:46;14.60;;;10.98;;
12816;SDS011;6473;51.552;6.716;2023-04-06T09:49:13;15.25;;;10.25;;
12816;SDS011;6473;51.552;6.716;2023-04-06T09:51:41;17.92;;;9.93;;
12816;SDS011;6473;51.552;6.716;2023-04-06T09:54:15;14.32;;;9.40;;
12816;SDS011;6473;51.552;6.716;2023-04-06T09:56:45;16.38;;;9.85;;
12816;SDS011;6473;51.552;6.716;2023-04-06T09:59:13;16.08;;;10.50;;
12816;SDS011;6473;51.552;6.716;2023-04-06T10:01:46;15.10;;;10.50;;
12816;SDS011;6473;51.552;6.716;2023-04-06T10:04:21;14.10;;;9.65;;
12816;SDS011;6473;51.552;6.716;2023-04-06T10:06:59;14.52;;;10.55;;
12816;SDS011;6473;51.552;6.716;2023-04-06T10:09:28;15.25;;;10.18;;
12816;SDS011;6473;51.552;6.716;2023-04-06T10:12:01;14.25;;;10.30;;
12816;SDS011;6473;51.552;6.716;2023-04-06T10:14:29;12.82;;;9.63;;
12816;SDS011;6473;51.552;6.716;2023-04-06T10:16:59;13.85;;;9.45;;
12816;SDS011;6473;51.552;6.716;2023-04-06T10:19:28;14.40;;;9.77;;
12816;SDS011;6473;51.552;6.716;2023-04-06T10:22:00;15.10;;;10.02;;
12816;SDS011;6473;51.552;6.716;2023-04-06T10:24:29;13.13;;;10.18;;
12816;SDS011;6473;51.552;6.716;2023-04-06T10:27:00;16.73;;;10.50;;
12816;SDS011;6473;51.552;6.716;2023-04-06T10:29:28;17.02;;;11.60;;
12816;SDS011;6473;51.552;6.716;2023-04-06T10:32:08;14.57;;;10.57;;
12816;SDS011;6473;51.552;6.716;2023-04-06T10:34:35;15.50;;;10.15;;
12816;SDS011;6473;51.552;6.716;2023-04-06T10:37:10;16.67;;;10.27;;
12816;SDS011;6473;51.552;6.716;2023-04-06T10:39:45;13.60;;;9.60;;
12816;SDS011;6473;51.552;6.716;2023-04-06T10:42:12;11.02;;;9.80;;
12816;SDS011;6473;51.552;6.716;2023-04-06T10:44:42;11.32;;;9.48;;
12816;SDS011;6473;51.552;6.716;2023-04-06T10:47:18;14.85;;;9.82;;
12816;SDS011;6473;51.552;6.716;2023-04-06T10:49:45;16.33;;;10.73;;
12816;SDS011;6473;51.552;6.716;2023-04-06T10:52:12;13.80;;;9.70;;
12816;SDS011;6473;51.552;6.716;2023-04-06T10:54:41;15.20;;;10.57;;
12816;SDS011;6473;51.552;6.716;2023-04-06T10:57:10;11.85;;;9.88;;
12816;SDS011;6473;51.552;6.716;2023-04-06T10:59:36;13.25;;;9.38;;
12816;SDS011;6473;51.552;6.716;2023-04-06T11:02:08;12.57;;;10.18;;
12816;SDS011;6473;51.552;6.716;2023-04-06T11:04:39;14.32;;;10.52;;
12816;SDS011;6473;51.552;6.716;2023-04-06T11:07:07;14.95;;;9.63;;
12816;SDS011;6473;51.552;6.716;2023-04-06T11:09:34;13.48;;;10.05;;
12816;SDS011;6473;51.552;6.716;2023-04-06T11:12:01;15.50;;;9.95;;
12816;SDS011;6473;51.552;6.716;2023-04-06T11:14:28;16.55;;;9.75;;
12816;SDS011;6473;51.552;6.716;2023-04-06T11:16:55;16.23;;;9.20;;
12816;SDS011;6473;51.552;6.716;2023-04-06T11:19:22;16.15;;;10.90;;
12816;SDS011;6473;51.552;6.716;2023-04-06T11:21:50;14.35;;;9.65;;
12816;SDS011;6473;51.552;6.716;2023-04-06T11:24:18;16.08;;;10.88;;
12816;SDS011;6473;51.552;6.716;2023-04-06T11:26:46;17.42;;;9.85;;
12816;SDS011;6473;51.552;6.716;2023-04-06T11:29:16;13.15;;;9.57;;
12816;SDS011;6473;51.552;6.716;2023-04-06T11:31:45;14.93;;;10.32;;
12816;SDS011;6473;51.552;6.716;2023-04-06T11:34:15;14.40;;;10.00;;
12816;SDS011;6473;51.552;6.716;2023-04-06T11:36:43;13.63;;;10.02;;
12816;SDS011;6473;51.552;6.716;2023-04-06T11:39:13;14.10;;;10.80;;
12816;SDS011;6473;51.552;6.716;2023-04-06T11:41:48;13.45;;;10.80;;
12816;SDS011;6473;51.552;6.716;2023-04-06T11:44:15;15.43;;;11.05;;
12816;SDS011;6473;51.552;6.716;2023-04-06T11:46:53;12.90;;;10.82;;
12816;SDS011;6473;51.552;6.716;2023-04-06T11:49:20;13.60;;;10.70;;
12816;SDS011;6473;51.552;6.716;2023-04-06T11:51:47;13.85;;;10.63;;
12816;SDS011;6473;51.552;6.716;2023-04-06T11:54:15;13.18;;;10.93;;
12816;SDS011;6473;51.552;6.716;2023-04-06T11:56:42;13.20;;;10.27;;
12816;SDS011;6473;51.552;6.716;2023-04-06T11:59:13;14.95;;;11.10;;
12816;SDS011;6473;51.552;6.716;2023-04-06T12:01:44;14.23;;;10.88;;
12816;SDS011;6473;51.552;6.716;2023-04-06T12:04:11;15.48;;;10.18;;
12816;SDS011;6473;51.552;6.716;2023-04-06T12:06:38;15.07;;;10.82;;
12816;SDS011;6473;51.552;6.716;2023-04-06T12:09:05;16.13;;;10.55;;
12816;SDS011;6473;51.552;6.716;2023-04-06T12:11:33;12.15;;;10.43;;
12816;SDS011;6473;51.552;6.716;2023-04-06T12:14:00;15.27;;;11.25;;
12816;SDS011;6473;51.552;6.716;2023-04-06T12:16:30;13.82;;;10.88;;
12816;SDS011;6473;51.552;6.716;2023-04-06T12:18:56;12.68;;;10.05;;
12816;SDS011;6473;51.552;6.716;2023-04-06T12:21:23;13.52;;;10.38;;
12816;SDS011;6473;51.552;6.716;2023-04-06T12:23:50;13.25;;;10.23;;
12816;SDS011;6473;51.552;6.716;2023-04-06T12:26:17;13.30;;;10.38;;
12816;SDS011;6473;51.552;6.716;2023-04-06T12:28:45;12.75;;;10.18;;
12816;SDS011;6473;51.552;6.716;2023-04-06T12:31:15;15.60;;;10.00;;
12816;SDS011;6473;51.552;6.716;2023-04-06T12:33:43;12.85;;;9.65;;
12816;SDS011;6473;51.552;6.716;2023-04-06T12:36:12;13.10;;;9.50;;
12816;SDS011;6473;51.552;6.716;2023-04-06T12:38:39;11.73;;;9.25;;
12816;SDS011;6473;51.552;6.716;2023-04-06T12:41:06;13.98;;;9.63;;
12816;SDS011;6473;51.552;6.716;2023-04-06T12:43:33;10.93;;;9.13;;
12816;SDS011;6473;51.552;6.716;2023-04-06T12:46:02;14.25;;;10.43;;
12816;SDS011;6473;51.552;6.716;2023-04-06T12:48:29;13.07;;;9.63;;
12816;SDS011;6473;51.552;6.716;2023-04-06T12:50:57;14.32;;;9.57;;
12816;SDS011;6473;51.552;6.716;2023-04-06T12:53:25;9.13;;;7.65;;
12816;SDS011;6473;51.552;6.716;2023-04-06T12:55:53;9.88;;;7.47;;
12816;SDS011;6473;51.552;6.716;2023-04-06T12:58:21;12.68;;;8.52;;
12816;SDS011;6473;51.552;6.716;2023-04-06T13:00:48;13.80;;;9.35;;
12816;SDS011;6473;51.552;6.716;2023-04-06T13:03:17;13.48;;;9.38;;
12816;SDS011;6473;51.552;6.716;2023-04-06T13:05:45;11.25;;;7.70;;
12816;SDS011;6473;51.552;6.716;2023-04-06T13:08:12;10.10;;;7.00;;
12816;SDS011;6473;51.552;6.716;2023-04-06T13:10:43;8.43;;;7.03;;
12816;SDS011;6473;51.552;6.716;2023-04-06T13:13:10;7.90;;;6.30;;
12816;SDS011;6473;51.552;6.716;2023-04-06T13:15:36;9.60;;;6.75;;
12816;SDS011;6473;51.552;6.716;2023-04-06T13:18:04;11.13;;;7.78;;
12816;SDS011;6473;51.552;6.716;2023-04-06T13:20:32;13.90;;;8.15;;
12816;SDS011;6473;51.552;6.716;2023-04-06T13:22:59;9.25;;;7.22;;
12816;SDS011;6473;51.552;6.716;2023-04-06T13:25:26;7.13;;;5.72;;
12816;SDS011;6473;51.552;6.716;2023-04-06T13:27:53;9.00;;;5.78;;
12816;SDS011;6473;51.552;6.716;2023-04-06T13:30:20;5.65;;;4.72;;
12816;SDS011;6473;51.552;6.716;2023-04-06T13:32:48;7.93;;;5.85;;
12816;SDS011;6473;51.552;6.716;2023-04-06T13:35:14;5.53;;;4.90;;
12816;SDS011;6473;51.552;6.716;2023-04-06T13:37:43;5.45;;;4.85;;
12816;SDS011;6473;51.552;6.716;2023-04-06T13:40:10;6.85;;;5.50;;
12816;SDS011;6473;51.552;6.716;2023-04-06T13:42:37;6.82;;;5.03;;
12816;SDS011;6473;51.552;6.716;2023-04-06T13:45:06;8.30;;;5.10;;
12816;SDS011;6473;51.552;6.716;2023-04-06T13:47:33;5.72;;;5.13;;
12816;SDS011;6473;51.552;6.716;2023-04-06T13:50:00;5.93;;;4.68;;
12816;SDS011;6473;51.552;6.716;2023-04-06T13:52:27;5.43;;;4.30;;
12816;SDS011;6473;51.552;6.716;2023-04-06T13:54:56;5.47;;;4.80;;
12816;SDS011;6473;51.552;6.716;2023-04-06T13:57:22;7.88;;;4.63;;
12816;SDS011;6473;51.552;6.716;2023-04-06T13:59:49;6.03;;;4.93;;
12816;SDS011;6473;51.552;6.716;2023-04-06T14:02:16;8.15;;;5.75;;
12816;SDS011;6473;51.552;6.716;2023-04-06T14:04:44;6.03;;;5.43;;
12816;SDS011;6473;51.552;6.716;2023-04-06T14:07:11;7.10;;;5.30;;
12816;SDS011;6473;51.552;6.716;2023-04-06T14:09:38;7.60;;;6.18;;
12816;SDS011;6473;51.552;6.716;2023-04-06T14:12:07;6.10;;;5.00;;
12816;SDS011;6473;51.552;6.716;2023-04-06T14:14:34;6.40;;;5.75;;
12816;SDS011;6473;51.552;6.716;2023-04-06T14:17:01;7.68;;;6.10;;
12816;SDS011;6473;51.552;6.716;2023-04-06T14:19:28;8.05;;;6.80;;
12816;SDS011;6473;51.552;6.716;2023-04-06T14:21:55;7.10;;;6.40;;
12816;SDS011;6473;51.552;6.716;2023-04-06T14:24:22;8.02;;;6.55;;
12816;SDS011;6473;51.552;6.716;2023-04-06T14:26:49;7.00;;;6.30;;
12816;SDS011;6473;51.552;6.716;2023-04-06T14:29:18;7.85;;;6.68;;
12816;SDS011;6473;51.552;6.716;2023-04-06T14:31:46;8.27;;;6.60;;
12816;SDS011;6473;51.552;6.716;2023-04-06T14:34:14;6.95;;;6.22;;
12816;SDS011;6473;51.552;6.716;2023-04-06T14:36:41;6.32;;;5.70;;
12816;SDS011;6473;51.552;6.716;2023-04-06T14:39:08;7.60;;;5.93;;
12816;SDS011;6473;51.552;6.716;2023-04-06T14:41:35;7.55;;;6.00;;
12816;SDS011;6473;51.552;6.716;2023-04-06T14:44:02;9.80;;;6.95;;
12816;SDS011;6473;51.552;6.716;2023-04-06T14:46:31;8.65;;;6.80;;
12816;SDS011;6473;51.552;6.716;2023-04-06T14:48:58;13.13;;;7.78;;
12816;SDS011;6473;51.552;6.716;2023-04-06T14:51:25;14.65;;;8.68;;
12816;SDS011;6473;51.552;6.716;2023-04-06T14:53:53;15.70;;;9.15;;
12816;SDS011;6473;51.552;6.716;2023-04-06T14:56:20;18.73;;;10.63;;
12816;SDS011;6473;51.552;6.716;2023-04-06T14:58:48;11.13;;;8.77;;
12816;SDS011;6473;51.552;6.716;2023-04-06T15:01:16;9.35;;;7.57;;